createdAt,value
2019-05-17T00:00:01.583Z,21.64
2019-05-17T00:02:03.211Z,21.64
2019-05-17T00:04:07.039Z,21.65
2019-05-17T00:06:06.894Z,21.64
2019-05-17T00:08:08.154Z,21.65
2019-05-17T00:10:09.768Z,21.65
2019-05-17T00:12:11.485Z,21.71
2019-05-17T00:14:13.085Z,21.77
2019-05-17T00:16:14.688Z,21.78
2019-05-17T00:18:17.141Z,21.79
2019-05-17T00:20:18.092Z,21.75
2019-05-17T00:22:19.722Z,21.78
2019-05-17T00:24:21.318Z,21.84
2019-05-17T00:26:22.931Z,21.83
2019-05-17T00:28:26.732Z,21.81
2019-05-17T00:30:26.676Z,21.78
2019-05-17T00:32:27.924Z,21.75
2019-05-17T00:34:29.531Z,21.71
2019-05-17T00:36:31.149Z,21.68
2019-05-17T00:38:45.583Z,21.64
2019-05-17T00:40:36.545Z,21.66
2019-05-17T00:42:37.251Z,21.66
2019-05-17T00:44:37.764Z,21.65
2019-05-17T00:46:39.354Z,21.67
2019-05-17T00:48:40.949Z,21.73
2019-05-17T00:50:42.609Z,21.75
2019-05-17T00:52:44.236Z,21.80
2019-05-17T00:54:46.912Z,21.80
2019-05-17T00:56:47.496Z,21.79
2019-05-17T00:58:49.090Z,21.77
2019-05-17T01:00:50.701Z,21.71
2019-05-17T01:02:52.328Z,21.74
2019-05-17T01:04:53.935Z,21.77
2019-05-17T01:06:56.271Z,21.75
2019-05-17T01:09:03.481Z,21.75
2019-05-17T01:10:58.848Z,21.75
2019-05-17T01:13:00.482Z,21.80
2019-05-17T01:15:02.121Z,21.79
2019-05-17T01:17:03.752Z,21.74
2019-05-17T01:19:06.802Z,21.71
2019-05-17T01:21:07.184Z,21.72
2019-05-17T01:23:08.796Z,21.72
2019-05-17T01:25:10.426Z,21.75
2019-05-17T01:27:12.036Z,21.77
2019-05-17T01:29:13.671Z,21.75
2019-05-17T01:31:17.222Z,21.74
2019-05-17T01:33:17.263Z,21.70
2019-05-17T01:35:18.587Z,21.70
2019-05-17T01:37:20.172Z,21.68
2019-05-17T01:39:21.770Z,21.64
2019-05-17T01:41:23.375Z,21.55
2019-05-17T01:43:27.207Z,21.54
2019-05-17T01:45:26.980Z,21.50
2019-05-17T01:47:28.311Z,21.52
2019-05-17T01:49:29.918Z,21.53
2019-05-17T01:51:31.518Z,21.45
2019-05-17T01:53:33.123Z,21.41
2019-05-17T01:55:37.186Z,21.50
2019-05-17T01:57:37.001Z,21.60
2019-05-17T01:59:38.022Z,21.65
2019-05-17T02:01:39.632Z,21.68
2019-05-17T02:03:41.276Z,21.70
2019-05-17T02:05:42.874Z,21.75
2019-05-17T02:07:46.464Z,21.82
2019-05-17T02:09:47.697Z,21.91
2019-05-17T02:11:47.757Z,21.97
2019-05-17T02:13:49.354Z,22.02
2019-05-17T02:15:50.964Z,21.85
2019-05-17T02:17:52.567Z,22.12
2019-05-17T02:19:54.169Z,22.16
2019-05-17T02:21:57.012Z,22.22
2019-05-17T02:23:57.388Z,22.24
2019-05-17T02:25:59.027Z,22.25
2019-05-17T02:28:01.520Z,22.28
2019-05-17T02:30:02.953Z,22.28
2019-05-17T02:32:04.180Z,22.28
2019-05-17T02:34:05.561Z,22.28
2019-05-17T02:36:07.165Z,22.26
2019-05-17T02:38:08.775Z,22.27
2019-05-17T02:40:13.936Z,22.03
2019-05-17T02:42:13.780Z,22.26
2019-05-17T02:44:13.720Z,22.22
2019-05-17T02:46:15.328Z,22.20
2019-05-17T02:48:16.927Z,22.14
2019-05-17T02:50:18.545Z,22.09
2019-05-17T02:52:22.801Z,22.06
2019-05-17T02:54:23.488Z,22.07
2019-05-17T02:56:23.501Z,22.05
2019-05-17T02:58:25.084Z,22.04
2019-05-17T03:00:26.740Z,22.07
2019-05-17T03:02:28.370Z,22.08
2019-05-17T03:04:32.622Z,22.07
2019-05-17T03:06:32.962Z,22.05
2019-05-17T03:08:34.397Z,22.06
2019-05-17T03:10:34.977Z,22.06
2019-05-17T03:12:36.587Z,22.06
2019-05-17T03:14:38.201Z,22.08
2019-05-17T03:16:42.749Z,22.06
2019-05-17T03:18:43.819Z,22.06
2019-05-17T03:20:43.345Z,22.05
2019-05-17T03:22:44.756Z,21.96
2019-05-17T03:24:46.383Z,22.08
2019-05-17T03:26:48.018Z,22.11
2019-05-17T03:28:49.628Z,22.08
2019-05-17T03:30:56.479Z,22.08
2019-05-17T03:32:56.112Z,22.06
2019-05-17T03:34:56.343Z,21.89
2019-05-17T03:36:57.078Z,22.01
2019-05-17T03:38:58.163Z,21.94
2019-05-17T03:41:13.455Z,21.91
2019-05-17T03:43:02.867Z,21.88
2019-05-17T03:45:03.305Z,21.82
2019-05-17T03:47:04.987Z,21.77
2019-05-17T03:49:06.636Z,21.73
2019-05-17T03:51:08.232Z,21.71
2019-05-17T03:53:12.895Z,21.51
2019-05-17T03:55:13.154Z,21.78
2019-05-17T03:57:13.506Z,21.82
2019-05-17T03:59:14.905Z,21.85
2019-05-17T04:01:16.511Z,21.93
2019-05-17T04:03:18.145Z,22.01
2019-05-17T04:05:22.460Z,22.06
2019-05-17T04:07:23.570Z,22.09
2019-05-17T04:09:23.142Z,22.16
2019-05-17T04:11:31.534Z,22.20
2019-05-17T04:13:26.409Z,22.30
2019-05-17T04:15:28.012Z,22.31
2019-05-17T04:17:32.552Z,22.29
2019-05-17T04:19:33.759Z,22.22
2019-05-17T04:21:34.280Z,22.14
2019-05-17T04:23:34.683Z,22.08
2019-05-17T04:25:38.720Z,22.02
2019-05-17T04:27:37.950Z,21.98
2019-05-17T04:29:42.424Z,21.94
2019-05-17T04:31:43.467Z,21.97
2019-05-17T04:33:43.269Z,22.05
2019-05-17T04:35:44.592Z,22.12
2019-05-17T04:37:46.230Z,22.12
2019-05-17T04:39:47.844Z,22.13
2019-05-17T04:41:53.854Z,22.14
2019-05-17T04:43:53.196Z,22.14
2019-05-17T04:45:53.600Z,22.15
2019-05-17T04:47:54.396Z,22.14
2019-05-17T04:49:56.031Z,22.13
2019-05-17T04:51:57.646Z,22.13
2019-05-17T04:53:59.269Z,22.11
2019-05-17T04:56:03.093Z,22.12
2019-05-17T04:58:03.874Z,22.15
2019-05-17T05:00:04.478Z,21.93
2019-05-17T05:02:05.927Z,22.19
2019-05-17T05:04:07.529Z,22.18
2019-05-17T05:06:09.118Z,22.15
2019-05-17T05:08:13.008Z,22.13
2019-05-17T05:10:13.446Z,22.12
2019-05-17T05:12:14.075Z,22.10
2019-05-17T05:14:15.699Z,22.08
2019-05-17T05:16:17.304Z,22.09
2019-05-17T05:18:21.875Z,22.14
2019-05-17T05:20:22.155Z,22.16
2019-05-17T05:22:22.547Z,22.21
2019-05-17T05:24:24.020Z,22.21
2019-05-17T05:26:25.604Z,22.22
2019-05-17T05:28:27.198Z,22.15
2019-05-17T05:30:28.798Z,22.08
2019-05-17T05:32:31.558Z,22.01
2019-05-17T05:34:32.278Z,21.98
2019-05-17T05:36:33.724Z,21.98
2019-05-17T05:38:35.322Z,22.03
2019-05-17T05:40:36.918Z,22.07
2019-05-17T05:42:38.568Z,22.10
2019-05-17T05:44:41.551Z,21.86
2019-05-17T05:46:42.306Z,22.12
2019-05-17T05:48:43.700Z,22.11
2019-05-17T05:50:45.295Z,22.13
2019-05-17T05:52:46.940Z,22.16
2019-05-17T05:54:48.552Z,22.16
2019-05-17T05:56:52.350Z,22.16
2019-05-17T05:58:52.288Z,22.18
2019-05-17T06:00:53.445Z,22.17
2019-05-17T06:02:55.092Z,22.16
2019-05-17T06:04:56.691Z,22.12
2019-05-17T06:06:58.285Z,22.11
2019-05-17T06:08:59.882Z,22.10
2019-05-17T06:11:02.151Z,22.14
2019-05-17T06:13:03.376Z,21.89
2019-05-17T06:15:04.870Z,22.25
2019-05-17T06:17:06.453Z,22.37
2019-05-17T06:19:08.050Z,22.28
2019-05-17T06:21:12.039Z,22.17
2019-05-17T06:23:12.366Z,22.23
2019-05-17T06:25:15.572Z,22.28
2019-05-17T06:27:15.016Z,22.39
2019-05-17T06:29:16.631Z,22.46
2019-05-17T06:31:18.230Z,22.48
2019-05-17T06:33:29.924Z,22.50
2019-05-17T06:35:21.858Z,22.52
2019-05-17T06:37:23.200Z,22.59
2019-05-17T06:39:24.797Z,22.59
2019-05-17T06:41:26.407Z,22.37
2019-05-17T06:43:27.999Z,22.20
2019-05-17T06:45:29.837Z,21.99
2019-05-17T06:47:32.837Z,22.02
2019-05-17T06:49:33.160Z,21.97
2019-05-17T06:51:35.470Z,21.92
2019-05-17T06:53:37.067Z,21.93
2019-05-17T06:55:38.666Z,21.90
2019-05-17T06:57:42.847Z,21.88
2019-05-17T06:59:42.028Z,21.87
2019-05-17T07:01:43.663Z,21.88
2019-05-17T07:03:45.274Z,21.87
2019-05-17T07:05:46.902Z,21.93
2019-05-17T07:07:49.835Z,21.92
2019-05-17T07:09:50.181Z,21.89
2019-05-17T07:11:51.781Z,21.83
2019-05-17T07:13:53.390Z,21.78
2019-05-17T07:15:55.017Z,21.79
2019-05-17T07:17:56.610Z,21.93
2019-05-17T07:19:59.726Z,21.79
2019-05-17T07:22:00.054Z,21.67
2019-05-17T07:24:01.534Z,21.61
2019-05-17T07:26:03.119Z,21.58
2019-05-17T07:28:04.725Z,21.55
2019-05-17T07:30:06.347Z,21.54
2019-05-17T07:32:09.818Z,21.53
2019-05-17T07:34:09.636Z,21.53
2019-05-17T07:36:11.287Z,21.39
2019-05-17T07:38:12.892Z,21.59
2019-05-17T07:40:14.554Z,21.63
2019-05-17T07:42:16.149Z,21.65
2019-05-17T07:44:17.732Z,21.72
2019-05-17T07:46:20.619Z,21.75
2019-05-17T07:48:20.968Z,21.80
2019-05-17T07:50:22.603Z,21.84
2019-05-17T07:52:24.237Z,21.88
2019-05-17T07:54:25.843Z,21.91
2019-05-17T07:56:27.482Z,21.96
2019-05-17T07:58:30.014Z,22.00
2019-05-17T08:00:30.761Z,22.05
2019-05-17T08:02:32.400Z,22.11
2019-05-17T08:04:34.007Z,22.07
2019-05-17T08:06:35.606Z,22.04
2019-05-17T08:08:37.254Z,22.02
2019-05-17T08:10:41.007Z,22.00
2019-05-17T08:12:41.132Z,21.95
2019-05-17T08:14:42.158Z,21.92
2019-05-17T08:16:43.739Z,21.89
2019-05-17T08:18:45.324Z,21.90
2019-05-17T08:20:46.968Z,21.87
2019-05-17T08:22:50.209Z,21.91
2019-05-17T08:24:50.281Z,21.97
2019-05-17T08:26:51.883Z,21.91
2019-05-17T08:28:53.488Z,21.89
2019-05-17T08:30:55.101Z,21.86
2019-05-17T08:32:56.765Z,21.87
2019-05-17T08:35:00.381Z,21.90
2019-05-17T08:37:01.046Z,21.87
2019-05-17T08:39:01.716Z,21.87
2019-05-17T08:41:03.360Z,21.88
2019-05-17T08:43:04.976Z,21.85
2019-05-17T08:45:06.621Z,21.80
2019-05-17T08:47:10.159Z,21.77
2019-05-17T08:49:09.918Z,21.73
2019-05-17T08:51:11.526Z,21.68
2019-05-17T08:53:13.120Z,21.63
2019-05-17T08:55:14.728Z,21.60
2019-05-17T08:57:16.340Z,21.56
2019-05-17T08:59:20.119Z,21.52
2019-05-17T09:01:19.767Z,21.49
2019-05-17T09:03:21.280Z,21.46
2019-05-17T09:05:22.892Z,21.46
2019-05-17T09:07:24.480Z,21.49
2019-05-17T09:09:26.088Z,21.54
2019-05-17T09:11:30.120Z,21.57
2019-05-17T09:13:29.962Z,21.57
2019-05-17T09:15:31.411Z,21.60
2019-05-17T09:17:33.043Z,21.61
2019-05-17T09:19:34.768Z,21.61
2019-05-17T09:21:36.380Z,21.63
2019-05-17T09:23:39.634Z,21.56
2019-05-17T09:25:39.972Z,21.67
2019-05-17T09:27:41.358Z,21.69
2019-05-17T09:29:43.012Z,21.66
2019-05-17T09:31:44.614Z,21.61
2019-05-17T09:33:46.243Z,21.57
2019-05-17T09:35:50.038Z,21.52
2019-05-17T09:37:50.268Z,21.50
2019-05-17T09:39:51.884Z,21.45
2019-05-17T09:41:53.503Z,21.42
2019-05-17T09:44:08.727Z,21.41
2019-05-17T09:45:56.806Z,21.42
2019-05-17T09:48:00.627Z,21.45
2019-05-17T09:50:00.640Z,21.46
2019-05-17T09:52:02.385Z,21.42
2019-05-17T09:54:04.020Z,21.40
2019-05-17T09:56:05.666Z,21.33
2019-05-17T09:58:09.630Z,21.31
2019-05-17T10:00:09.889Z,21.29
2019-05-17T10:02:10.617Z,21.23
2019-05-17T10:04:13.650Z,21.27
2019-05-17T10:06:13.955Z,21.28
2019-05-17T10:08:15.566Z,21.27
2019-05-17T10:10:17.171Z,21.27
2019-05-17T10:12:20.297Z,21.29
2019-05-17T10:14:28.141Z,21.32
2019-05-17T10:16:22.123Z,21.30
2019-05-17T10:18:23.722Z,21.25
2019-05-17T10:20:25.328Z,21.25
2019-05-17T10:22:26.922Z,21.00
2019-05-17T10:24:37.984Z,21.20
2019-05-17T10:26:30.446Z,21.21
2019-05-17T10:28:31.853Z,21.25
2019-05-17T10:30:33.439Z,21.28
2019-05-17T10:32:35.048Z,21.27
2019-05-17T10:34:36.650Z,21.23
2019-05-17T10:36:40.185Z,20.97
2019-05-17T10:38:39.954Z,21.24
2019-05-17T10:40:41.549Z,21.28
2019-05-17T10:42:43.145Z,21.29
2019-05-17T10:44:47.771Z,21.31
2019-05-17T10:46:46.400Z,21.30
2019-05-17T10:48:50.023Z,21.36
2019-05-17T10:50:49.804Z,21.38
2019-05-17T10:52:51.348Z,21.41
2019-05-17T10:54:53.691Z,21.44
2019-05-17T10:56:55.317Z,21.43
2019-05-17T10:58:56.926Z,21.44
2019-05-17T11:01:00.574Z,21.40
2019-05-17T11:03:00.580Z,21.38
2019-05-17T11:05:01.877Z,21.35
2019-05-17T11:07:04.350Z,21.36
2019-05-17T11:09:05.161Z,21.40
2019-05-17T11:11:06.776Z,21.39
2019-05-17T11:13:08.390Z,21.39
2019-05-17T11:15:11.773Z,21.37
2019-05-17T11:17:11.692Z,21.32
2019-05-17T11:19:13.305Z,21.27
2019-05-17T11:21:14.919Z,20.11
2019-05-17T11:23:16.551Z,21.16
2019-05-17T11:25:18.184Z,21.12
2019-05-17T11:27:19.836Z,21.10
2019-05-17T11:29:21.449Z,21.08
2019-05-17T11:31:23.082Z,21.06
2019-05-17T11:33:24.687Z,21.03
2019-05-17T11:35:26.300Z,21.03
2019-05-17T11:37:27.939Z,21.03
2019-05-17T11:39:29.534Z,21.02
2019-05-17T11:41:31.162Z,21.08
2019-05-17T11:43:32.775Z,21.12
2019-05-17T11:45:34.417Z,21.16
2019-05-17T11:47:36.023Z,21.27
2019-05-17T11:49:37.627Z,21.29
2019-05-17T11:51:39.267Z,21.33
2019-05-17T11:53:40.903Z,21.40
2019-05-17T11:55:42.499Z,21.50
2019-05-17T11:57:44.115Z,21.47
2019-05-17T11:59:45.922Z,21.48
2019-05-17T12:01:47.506Z,21.41
2019-05-17T12:03:49.112Z,21.33
2019-05-17T12:05:50.747Z,21.21
2019-05-17T12:07:52.341Z,21.13
2019-05-17T12:09:53.928Z,21.08
2019-05-17T12:11:55.522Z,21.05
2019-05-17T12:13:57.140Z,21.02
2019-05-17T12:15:58.784Z,21.01
2019-05-17T12:18:00.373Z,21.09
2019-05-17T12:20:02.062Z,21.07
2019-05-17T12:22:03.662Z,21.18
2019-05-17T12:24:05.315Z,21.21
2019-05-17T12:26:06.962Z,21.21
2019-05-17T12:28:08.557Z,21.19
2019-05-17T12:30:10.221Z,21.18
2019-05-17T12:32:16.793Z,21.10
2019-05-17T12:34:13.613Z,21.03
2019-05-17T12:36:15.210Z,21.00
2019-05-17T12:38:16.816Z,20.99
2019-05-17T12:40:18.442Z,21.01
2019-05-17T12:42:20.048Z,21.01
2019-05-17T12:44:21.650Z,20.98
2019-05-17T12:46:23.250Z,20.99
2019-05-17T12:48:24.882Z,21.13
2019-05-17T12:50:26.472Z,21.20
2019-05-17T12:52:28.102Z,21.19
2019-05-17T12:54:29.698Z,21.26
2019-05-17T12:56:31.345Z,21.32
2019-05-17T12:58:32.989Z,21.27
2019-05-17T13:00:34.581Z,21.34
2019-05-17T13:02:36.201Z,21.36
2019-05-17T13:04:37.799Z,21.29
2019-05-17T13:06:39.394Z,21.34
2019-05-17T13:08:41.103Z,21.32
2019-05-17T13:10:43.384Z,21.33
2019-05-17T13:12:45.144Z,21.29
2019-05-17T13:14:46.751Z,21.14
2019-05-17T13:16:48.350Z,21.19
2019-05-17T13:18:49.961Z,21.22
2019-05-17T13:20:51.569Z,21.10
2019-05-17T13:22:53.219Z,21.00
2019-05-17T13:24:54.809Z,20.95
2019-05-17T13:26:56.416Z,20.93
2019-05-17T13:28:58.060Z,20.93
2019-05-17T13:31:00.144Z,20.89
2019-05-17T13:33:01.794Z,20.92
2019-05-17T13:35:03.410Z,20.81
2019-05-17T13:37:05.001Z,20.75
2019-05-17T13:39:06.611Z,20.72
2019-05-17T13:41:08.206Z,20.67
2019-05-17T13:43:09.842Z,20.75
2019-05-17T13:45:11.451Z,20.75
2019-05-17T13:47:13.064Z,20.73
2019-05-17T13:49:14.676Z,20.70
2019-05-17T13:51:16.288Z,20.71
2019-05-17T13:53:17.936Z,20.73
2019-05-17T13:55:19.536Z,20.70
2019-05-17T13:57:21.149Z,20.75
2019-05-17T13:59:22.786Z,20.77
2019-05-17T14:01:24.433Z,20.75
2019-05-17T14:03:26.044Z,20.72
2019-05-17T14:05:27.699Z,20.66
2019-05-17T14:07:29.309Z,20.63
2019-05-17T14:09:30.931Z,20.62
2019-05-17T14:11:32.563Z,20.58
2019-05-17T14:13:34.186Z,20.56
2019-05-17T14:15:35.830Z,20.55
2019-05-17T14:17:37.441Z,20.54
2019-05-17T14:19:39.030Z,20.53
2019-05-17T14:21:40.635Z,20.53
2019-05-17T14:23:43.039Z,20.53
2019-05-17T14:25:44.627Z,20.52
2019-05-17T14:27:46.245Z,20.49
2019-05-17T14:29:47.846Z,20.50
2019-05-17T14:31:49.457Z,20.49
2019-05-17T14:33:51.084Z,20.48
2019-05-17T14:35:52.713Z,20.44
2019-05-17T14:37:54.337Z,20.43
2019-05-17T14:39:55.992Z,20.40
2019-05-17T14:41:57.586Z,20.40
2019-05-17T14:43:59.242Z,20.39
2019-05-17T14:46:00.897Z,20.38
2019-05-17T14:48:02.588Z,20.37
2019-05-17T14:50:04.777Z,20.35
2019-05-17T14:52:06.433Z,20.34
2019-05-17T14:54:08.045Z,20.30
2019-05-17T14:56:09.698Z,20.29
2019-05-17T14:58:11.319Z,20.28
2019-05-17T15:00:12.944Z,20.27
2019-05-17T15:02:14.563Z,20.13
2019-05-17T15:04:16.172Z,20.25
2019-05-17T15:06:17.803Z,20.24
2019-05-17T15:08:19.406Z,20.22
2019-05-17T15:10:21.038Z,20.22
2019-05-17T15:12:28.444Z,20.19
2019-05-17T15:14:24.337Z,20.18
2019-05-17T15:16:25.935Z,20.16
2019-05-17T15:18:27.622Z,20.14
2019-05-17T15:20:29.300Z,20.11
2019-05-17T15:22:30.936Z,20.12
2019-05-17T15:24:32.548Z,20.10
2019-05-17T15:26:35.799Z,20.08
2019-05-17T15:28:35.817Z,20.07
2019-05-17T15:30:37.454Z,20.07
2019-05-17T15:32:39.066Z,20.06
2019-05-17T15:34:40.684Z,20.05
2019-05-17T15:36:42.301Z,20.04
2019-05-17T15:38:43.898Z,20.02
2019-05-17T15:40:45.534Z,20.02
2019-05-17T15:42:47.152Z,19.98
2019-05-17T15:44:48.833Z,19.98
2019-05-17T15:46:50.426Z,19.98
2019-05-17T15:48:52.043Z,19.95
2019-05-17T15:50:53.711Z,19.95
2019-05-17T15:52:55.318Z,19.94
2019-05-17T15:54:56.918Z,19.93
2019-05-17T15:56:58.530Z,19.92
2019-05-17T15:59:00.178Z,19.91
2019-05-17T16:01:01.861Z,19.90
2019-05-17T16:03:03.514Z,19.89
2019-05-17T16:05:05.128Z,19.87
2019-05-17T16:07:06.765Z,19.88
2019-05-17T16:09:08.383Z,19.87
2019-05-17T16:11:10.028Z,19.86
2019-05-17T16:13:11.656Z,19.84
2019-05-17T16:15:13.268Z,19.83
2019-05-17T16:17:14.916Z,19.82
2019-05-17T16:19:16.532Z,19.81
2019-05-17T16:21:18.135Z,19.81
2019-05-17T16:23:19.776Z,19.79
2019-05-17T16:25:21.373Z,19.77
2019-05-17T16:27:23.056Z,19.77
2019-05-17T16:29:24.702Z,19.75
2019-05-17T16:31:26.290Z,19.71
2019-05-17T16:33:28.126Z,19.73
2019-05-17T16:35:29.754Z,19.72
2019-05-17T16:37:31.384Z,19.71
2019-05-17T16:39:32.983Z,19.71
2019-05-17T16:41:34.567Z,19.69
2019-05-17T16:43:36.163Z,19.67
2019-05-17T16:45:37.804Z,19.67
2019-05-17T16:47:39.403Z,19.66
2019-05-17T16:49:41.003Z,19.65
2019-05-17T16:51:42.607Z,19.64
2019-05-17T16:53:44.207Z,19.63
2019-05-17T16:55:45.807Z,19.60
2019-05-17T16:57:47.414Z,19.62
2019-05-17T16:59:49.000Z,19.61
2019-05-17T17:01:50.594Z,19.61
2019-05-17T17:03:52.219Z,19.59
2019-05-17T17:05:53.849Z,19.58
2019-05-17T17:07:55.438Z,19.57
2019-05-17T17:09:57.047Z,19.55
2019-05-17T17:11:58.629Z,19.54
2019-05-17T17:14:00.262Z,19.53
2019-05-17T17:16:02.091Z,19.51
2019-05-17T17:18:03.622Z,19.51
2019-05-17T17:20:05.327Z,19.49
2019-05-17T17:22:06.941Z,19.51
2019-05-17T17:24:08.545Z,19.98
2019-05-17T17:26:10.168Z,20.38
2019-05-17T17:28:11.784Z,20.68
2019-05-17T17:30:13.510Z,20.63
2019-05-17T17:32:21.478Z,20.82
2019-05-17T17:34:16.748Z,20.88
2019-05-17T17:36:19.554Z,21.10
2019-05-17T17:38:20.013Z,21.18
2019-05-17T17:40:21.628Z,20.96
2019-05-17T17:42:23.276Z,21.22
2019-05-17T17:44:24.879Z,21.24
2019-05-17T17:46:26.510Z,21.17
2019-05-17T17:48:28.114Z,21.25
2019-05-17T17:50:29.706Z,21.17
2019-05-17T17:52:31.361Z,21.42
2019-05-17T17:54:32.980Z,21.49
2019-05-17T17:56:34.688Z,21.59
2019-05-17T17:58:36.375Z,21.60
2019-05-17T18:00:37.983Z,21.57
2019-05-17T18:02:39.709Z,21.70
2019-05-17T18:04:41.296Z,21.58
2019-05-17T18:06:42.951Z,21.55
2019-05-17T18:08:44.634Z,21.59
2019-05-17T18:10:46.763Z,21.52
2019-05-17T18:12:47.949Z,21.43
2019-05-17T18:14:49.547Z,21.81
2019-05-17T18:16:51.205Z,21.87
2019-05-17T18:18:52.900Z,21.90
2019-05-17T18:20:54.570Z,21.94
2019-05-17T18:22:56.220Z,21.87
2019-05-17T18:24:57.829Z,21.74
2019-05-17T18:26:59.508Z,21.71
2019-05-17T18:29:01.102Z,21.93
2019-05-17T18:31:02.717Z,21.95
2019-05-17T18:33:04.368Z,21.93
2019-05-17T18:35:06.040Z,21.95
2019-05-17T18:37:07.676Z,21.90
2019-05-17T18:39:09.296Z,21.92
2019-05-17T18:41:11.004Z,21.51
2019-05-17T18:43:12.656Z,21.60
2019-05-17T18:45:14.306Z,21.74
2019-05-17T18:47:15.911Z,21.89
2019-05-17T18:49:17.542Z,21.94
2019-05-17T18:51:19.128Z,21.94
2019-05-17T18:53:20.787Z,21.93
2019-05-17T18:55:22.406Z,21.95
2019-05-17T18:57:24.014Z,22.04
2019-05-17T18:59:25.648Z,22.07
2019-05-17T19:01:27.269Z,22.12
2019-05-17T19:03:28.876Z,22.29
2019-05-17T19:05:30.496Z,22.29
2019-05-17T19:07:32.127Z,22.32
2019-05-17T19:09:33.746Z,22.25
2019-05-17T19:11:35.342Z,22.31
2019-05-17T19:13:36.947Z,22.28
2019-05-17T19:15:38.572Z,22.32
2019-05-17T19:17:40.173Z,22.34
2019-05-17T19:19:41.806Z,22.30
2019-05-17T19:21:43.413Z,22.26
2019-05-17T19:23:45.014Z,22.33
2019-05-17T19:25:46.686Z,22.38
2019-05-17T19:27:48.276Z,22.42
2019-05-17T19:29:49.878Z,22.44
2019-05-17T19:31:51.509Z,22.43
2019-05-17T19:33:53.105Z,22.28
2019-05-17T19:35:54.766Z,22.38
2019-05-17T19:37:56.373Z,22.47
2019-05-17T19:39:57.996Z,22.30
2019-05-17T19:41:59.603Z,22.22
2019-05-17T19:44:01.216Z,21.95
2019-05-17T19:46:02.828Z,21.84
2019-05-17T19:48:04.464Z,21.79
2019-05-17T19:50:06.092Z,21.73
2019-05-17T19:52:07.700Z,21.68
2019-05-17T19:54:09.312Z,21.63
2019-05-17T19:56:10.914Z,21.60
2019-05-17T19:58:12.511Z,21.54
2019-05-17T20:00:14.113Z,21.55
2019-05-17T20:02:15.812Z,21.60
2019-05-17T20:04:17.448Z,21.51
2019-05-17T20:06:19.100Z,21.48
2019-05-17T20:08:20.712Z,21.72
2019-05-17T20:10:22.354Z,22.10
2019-05-17T20:12:24.005Z,22.21
2019-05-17T20:14:25.593Z,22.32
2019-05-17T20:16:27.233Z,22.42
2019-05-17T20:18:28.820Z,22.50
2019-05-17T20:20:30.412Z,22.49
2019-05-17T20:22:32.048Z,22.44
2019-05-17T20:24:33.655Z,22.49
2019-05-17T20:26:35.262Z,22.49
2019-05-17T20:28:36.859Z,22.45
2019-05-17T20:30:38.490Z,22.43
2019-05-17T20:32:40.109Z,22.47
2019-05-17T20:34:41.716Z,22.47
2019-05-17T20:36:43.312Z,22.43
2019-05-17T20:38:44.924Z,22.46
2019-05-17T20:40:46.558Z,22.47
2019-05-17T20:42:48.187Z,22.46
2019-05-17T20:44:49.831Z,22.44
2019-05-17T20:46:51.467Z,22.40
2019-05-17T20:48:53.051Z,22.35
2019-05-17T20:50:54.702Z,22.13
2019-05-17T20:52:56.340Z,22.29
2019-05-17T20:54:57.938Z,22.31
2019-05-17T20:56:59.538Z,22.31
2019-05-17T20:59:01.148Z,22.06
2019-05-17T21:01:02.770Z,21.95
2019-05-17T21:03:05.151Z,22.08
2019-05-17T21:05:06.793Z,22.18
2019-05-17T21:07:08.445Z,22.35
2019-05-17T21:09:10.081Z,22.36
2019-05-17T21:11:11.682Z,22.34
2019-05-17T21:13:13.282Z,22.42
2019-05-17T21:15:14.953Z,22.39
2019-05-17T21:17:16.581Z,22.38
2019-05-17T21:19:18.242Z,22.40
2019-05-17T21:21:19.876Z,22.40
2019-05-17T21:23:21.472Z,22.44
2019-05-17T21:25:23.218Z,22.39
2019-05-17T21:27:24.813Z,22.33
2019-05-17T21:29:26.425Z,22.32
2019-05-17T21:31:28.041Z,22.36
2019-05-17T21:33:29.648Z,22.35
2019-05-17T21:35:31.280Z,22.36
2019-05-17T21:37:32.899Z,22.37
2019-05-17T21:39:34.507Z,22.36
2019-05-17T21:41:36.093Z,22.41
2019-05-17T21:43:37.689Z,22.34
2019-05-17T21:45:39.305Z,22.32
2019-05-17T21:47:40.942Z,22.32
2019-05-17T21:49:42.552Z,22.35
2019-05-17T21:51:44.182Z,22.29
2019-05-17T21:53:45.795Z,22.30
2019-05-17T21:55:47.384Z,22.35
2019-05-17T21:57:49.079Z,22.31
2019-05-17T21:59:50.720Z,22.38
2019-05-17T22:01:52.396Z,22.35
2019-05-17T22:03:53.994Z,22.31
2019-05-17T22:05:55.594Z,22.31
2019-05-17T22:07:57.194Z,22.34
2019-05-17T22:09:58.794Z,22.32
2019-05-17T22:12:01.176Z,22.39
2019-05-17T22:14:02.785Z,22.41
2019-05-17T22:16:18.523Z,22.35
2019-05-17T22:18:06.098Z,22.30
2019-05-17T22:20:07.704Z,22.29
2019-05-17T22:22:09.306Z,22.06
2019-05-17T22:24:10.957Z,21.80
2019-05-17T22:26:12.568Z,22.05
2019-05-17T22:28:14.199Z,22.09
2019-05-17T22:30:15.799Z,22.17
2019-05-17T22:32:17.439Z,22.17
2019-05-17T22:34:19.038Z,22.14
2019-05-17T22:36:20.652Z,22.32
2019-05-17T22:38:22.294Z,22.41
2019-05-17T22:40:23.890Z,22.47
2019-05-17T22:42:25.499Z,22.44
2019-05-17T22:44:27.102Z,22.51
2019-05-17T22:46:36.223Z,22.38
2019-05-17T22:48:30.369Z,22.35
2019-05-17T22:50:31.967Z,22.44
2019-05-17T22:52:33.603Z,22.46
2019-05-17T22:54:35.201Z,22.55
2019-05-17T22:56:36.855Z,22.56
2019-05-17T22:58:38.440Z,22.46
2019-05-17T23:00:40.116Z,22.32
2019-05-17T23:02:41.724Z,22.16
2019-05-17T23:04:43.419Z,22.11
2019-05-17T23:06:45.027Z,22.06
2019-05-17T23:08:46.630Z,21.80
2019-05-17T23:10:48.256Z,21.52
2019-05-17T23:12:49.852Z,21.35
2019-05-17T23:14:51.461Z,21.25
2019-05-17T23:16:53.110Z,21.22
2019-05-17T23:19:00.313Z,21.18
2019-05-17T23:21:01.960Z,21.15
2019-05-17T23:23:03.562Z,21.13
2019-05-17T23:25:05.158Z,21.08
2019-05-17T23:27:06.766Z,21.05
2019-05-17T23:29:08.440Z,21.03
2019-05-17T23:31:10.042Z,20.98
2019-05-17T23:33:11.629Z,20.96
2019-05-17T23:35:13.258Z,20.93
2019-05-17T23:37:14.854Z,20.88
2019-05-17T23:39:16.496Z,20.85
2019-05-17T23:41:18.094Z,20.83
2019-05-17T23:43:19.712Z,20.80
2019-05-17T23:45:21.324Z,20.75
2019-05-17T23:47:22.972Z,20.72
2019-05-17T23:49:24.556Z,20.69
2019-05-17T23:51:26.140Z,20.64
2019-05-17T23:53:27.779Z,20.63
2019-05-17T23:55:29.401Z,20.63
2019-05-17T23:57:31.012Z,20.61
2019-05-17T23:59:32.596Z,20.59
